ADDS METAR Data INFO
IDs: Format: Raw Decoded Include TAF

Data at: 1414 UTC 12 Dec 2017

KEYW 121353Z 12003KT 10SM FEW040 18/12 A3013 RMK AO2 SLP204 T01780117 $
KEYW 121253Z 06003KT 10SM CLR 17/13 A3013 RMK AO2 SLP201 T01670128 $
KEYW 121153Z 06004KT 10SM FEW035 14/11 A3013 RMK AO2 SLP201 T01390106 10161 20122 53007
KEYW 121053Z AUTO 07003KT 10SM SCT035 13/11 A3011 RMK AO2 SLP196 T01280106
KEYW 120953Z AUTO 08004KT 10SM CLR 14/11 A3010 RMK AO2 SLP193 T01440106
KEYW 120853Z AUTO 08005KT 10SM CLR 14/10 A3011 RMK AO2 SLP194 T01390100 58014
KEYW 120753Z AUTO 01004KT 10SM CLR 14/09 A3012 RMK AO2 SLP200 T01390094
KEYW 120653Z AUTO 01004KT 10SM CLR 15/09 A3014 RMK AO2 SLP205 T01500089
KEYW 120553Z AUTO 01004KT 10SM CLR 16/08 A3015 RMK AO2 SLP209 T01610083 10172 20161 58015
KEYW 120453Z AUTO 01005KT 10SM CLR 16/08 A3017 RMK AO2 SLP214 T01610083 401940144
KEYW 120353Z AUTO 36008KT 10SM CLR 17/11 A3018 RMK AO2 SLP220 T01670106
KEYW 120253Z AUTO 35006KT 10SM CLR 17/09 A3019 RMK AO2 SLP224 T01670094 51008
KEYW 120153Z AUTO 36008KT 10SM CLR 17/09 A3019 RMK AO2 SLP223 T01720094
KEYW 120053Z AUTO 36006KT 10SM CLR 17/10 A3019 RMK AO2 SLP222 T01720100
KEYW 112353Z 35008KT 10SM CLR 17/10 A3017 RMK AO2 SLP216 T01720100 10194 20172 51001
KEYW 112253Z 36009KT 10SM CLR 17/09 A3017 RMK AO2 SLP216 T01720089
KEYW 112153Z 36011KT 10SM CLR 18/10 A3017 RMK AO2 SLP215 T01830100
KEYW 112053Z 36010G18KT 10SM CLR 19/11 A3017 RMK AO2 SLP215 T01890106 56014
KEYW 111953Z 36013KT 10SM CLR 19/10 A3017 RMK AO2 SLP216 T01890100
KEYW 111853Z 01014G19KT 10SM CLR 19/11 A3018 RMK AO2 SLP219 T01890106
KEYW 111753Z 36014G19KT 10SM CLR 19/11 A3021 RMK AO2 SLP229 T01890106 10189 20150 58026
KEYW 111653Z 02013G19KT 10SM FEW035 18/09 A3024 RMK AO2 SLP238 T01830094
KEYW 111553Z 01014G20KT 10SM CLR 18/09 A3027 RMK AO2 SLP249 T01830094
KEYW 111453Z 02012G19KT 10SM CLR 18/08 A3029 RMK AO2 SLP255 T01780083 51012
KEYW 111353Z 02016G20KT 10SM CLR 17/05 A3027 RMK AO2 SLP250 T01720050
KEYW 111253Z 36012G20KT 10SM CLR 16/03 A3027 RMK AO2 SLP250 T01610033
KEYW 111153Z 36013G20KT 10SM CLR 15/08 A3025 RMK AO2 SLP243 T01500078 10150 20144 55001
KEYW 111053Z AUTO 36010G18KT 10SM CLR 15/09 A3024 RMK AO2 SLP241 T01500089
KEYW 110953Z AUTO 36013KT 10SM CLR 15/08 A3024 RMK AO2 SLP239 T01500078
KEYW 110853Z AUTO 36009KT 10SM CLR 15/08 A3025 RMK AO2 SLP243 T01500083 55006
KEYW 110753Z AUTO 36008KT 10SM CLR 15/08 A3025 RMK AO2 SLP243 T01500078
KEYW 110653Z AUTO 36008KT 10SM CLR 15/07 A3025 RMK AO2 SLP244 T01500072
KEYW 110553Z AUTO 01008KT 10SM CLR 14/08 A3027 RMK AO2 SLP249 T01440078 10156 20144 58010
KEYW 110453Z AUTO 01007KT 10SM CLR 15/08 A3029 RMK AO2 SLP256 T01500083 401890150
KEYW 110353Z AUTO 36009KT 10SM CLR 16/08 A3030 RMK AO2 SLP260 T01560083
KEYW 110253Z AUTO 01008KT 10SM CLR 16/08 A3030 RMK AO2 SLP259 T01560083 51011